Time;durP1;ratioP1;P1;durP2;ratioP2;P2;SDS_P1;SDS_P2;PMS_P1;PMS_P2;Temp;Humidity;BMP_temperature;BMP_pressure;BME280_temperature;BME280_humidity;BME280_pressure;Samples;Min_cycle;Max_cycle;Signal;HPM_P1;HPM_P2
2022/06/16 00:00:34;;;;;;;5.00;4.10;;;23.90;56.40;;;-142.21;80.55;112049.66;5052390;28;20234;-78
2022/06/16 00:03:03;;;;;;;6.03;4.50;;;23.90;56.50;;;-142.21;80.53;112049.66;5052433;28;20192;-77
2022/06/16 00:05:35;;;;;;;5.47;4.03;;;23.80;56.50;;;-142.21;80.78;112049.66;5053779;28;20225;-77
2022/06/16 00:08:03;;;;;;;6.47;4.07;;;23.70;56.80;;;-142.21;81.24;112049.66;5056212;28;20194;-79
2022/06/16 00:10:30;;;;;;;4.77;4.27;;;23.70;56.70;;;-142.21;80.99;112049.66;5056215;28;20282;-76
2022/06/16 00:12:58;;;;;;;5.93;3.93;;;23.60;56.80;;;-142.21;80.25;112049.66;5055612;28;20241;-77
2022/06/16 00:15:28;;;;;;;4.90;4.43;;;23.60;56.60;;;-142.21;79.42;112049.66;5042463;28;20287;-76
2022/06/16 00:17:56;;;;;;;4.73;4.33;;;23.50;56.30;;;-142.21;80.00;112049.66;5050835;28;20284;-75
2022/06/16 00:20:36;;;;;;;5.80;3.90;;;23.50;56.50;;;-142.21;80.54;112049.66;5042310;28;20213;-77
2022/06/16 00:23:05;;;;;;;4.83;4.17;;;23.40;56.60;;;-142.21;80.64;112049.66;5035574;28;20225;-78
2022/06/16 00:25:33;;;;;;;7.67;4.23;;;23.40;56.80;;;-142.21;80.86;112049.66;5040227;28;20214;-78
2022/06/16 00:28:01;;;;;;;4.43;3.83;;;23.40;56.80;;;-142.21;81.17;112049.66;5055182;28;20718;-79
2022/06/16 00:30:28;;;;;;;4.90;4.13;;;23.30;57.00;;;-142.21;81.82;112049.66;5035657;28;20217;-80
2022/06/16 00:32:55;;;;;;;4.73;4.23;;;23.30;57.20;;;-142.21;82.13;112049.66;5055094;28;20207;-79
2022/06/16 00:35:23;;;;;;;4.40;4.00;;;23.30;57.20;;;-142.21;81.86;112049.66;5073678;28;20232;-80
2022/06/16 00:37:50;;;;;;;5.13;4.30;;;23.30;57.20;;;-142.21;82.12;112049.66;5035566;28;20740;-80
2022/06/16 00:40:19;;;;;;;6.77;4.00;;;23.20;57.20;;;-142.21;82.62;112049.66;5034603;28;20251;-80
2022/06/16 00:42:47;;;;;;;4.47;4.07;;;23.20;57.50;;;-142.21;82.87;112049.66;5054365;28;20241;-80
2022/06/16 00:45:49;;;;;;;4.40;4.00;;;23.10;57.50;;;-142.21;82.85;112049.66;5055800;28;20245;-80
2022/06/16 00:48:23;;;;;;;5.13;3.97;;;23.10;58.20;;;-142.21;83.46;112049.66;5038391;28;20220;-80
2022/06/16 00:50:59;;;;;;;4.87;4.37;;;23.10;57.90;;;-142.21;83.67;112049.66;5045611;28;20230;-80
2022/06/16 00:53:30;;;;;;;5.13;4.00;;;23.10;57.80;;;-142.21;83.82;112049.66;5053999;28;20252;-79
2022/06/16 00:55:59;;;;;;;6.10;4.70;;;23.10;57.90;;;-142.21;83.87;112049.66;5038339;28;20241;-80
2022/06/16 00:58:29;;;;;;;4.93;4.43;;;23.10;58.00;;;-142.21;84.21;112049.66;5034691;28;20257;-80
2022/06/16 01:00:57;;;;;;;4.83;4.23;;;23.00;58.10;;;-142.21;83.73;112049.66;5043578;28;20228;-79
2022/06/16 01:06:21;;;;;;;4.40;4.00;;;22.50;58.40;;;-142.21;84.47;112049.66;5048060;28;20217;-80
2022/06/16 01:08:54;;;;;;;4.47;4.07;;;22.30;58.80;;;-142.21;84.33;112049.66;5045588;28;20194;-80
2022/06/16 01:14:50;;;;;;;5.97;4.03;;;22.30;58.90;;;-142.21;85.04;112049.66;5054079;28;20321;-80
2022/06/16 01:17:46;;;;;;;6.77;4.53;;;22.30;58.80;;;-142.21;84.82;112049.66;5049778;28;20327;-78
2022/06/16 01:20:28;;;;;;;4.30;3.90;;;22.30;58.50;;;-142.21;84.98;112049.66;5053693;28;20621;-77
2022/06/16 01:23:42;;;;;;;4.60;4.20;;;22.40;58.60;;;-142.21;85.35;112049.66;5054267;28;20717;-77
2022/06/16 01:26:45;;;;;;;4.37;3.97;;;22.40;58.80;;;-142.21;86.49;112049.66;5053574;28;20229;-77
2022/06/16 01:29:26;;;;;;;5.70;4.23;;;22.40;59.20;;;-142.21;85.64;112049.66;5045451;28;20234;-78
2022/06/16 01:32:08;;;;;;;4.20;3.80;;;22.30;58.90;;;-142.21;84.76;112049.66;5037304;28;20245;-77
2022/06/16 01:34:45;;;;;;;4.23;3.83;;;22.30;58.50;;;-142.21;84.49;112049.66;5054742;28;20608;-78
2022/06/16 01:37:19;;;;;;;4.20;3.73;;;22.20;58.40;;;-142.21;85.33;112049.66;5052650;28;20245;-80
2022/06/16 01:39:58;;;;;;;4.27;3.87;;;22.20;58.60;;;-142.21;85.61;112049.66;5041324;28;20218;-80
2022/06/16 01:42:40;;;;;;;6.93;4.50;;;22.20;58.80;;;-142.21;85.41;112049.66;5034130;28;20222;-78
2022/06/16 01:45:16;;;;;;;5.07;4.20;;;22.20;58.70;;;-142.21;85.47;112049.66;5044710;28;20271;-79
2022/06/16 01:47:51;;;;;;;5.00;4.07;;;22.20;58.60;;;-142.21;85.98;112049.66;5054418;28;20225;-78
2022/06/16 01:50:25;;;;;;;4.50;4.10;;;22.20;58.70;;;-142.21;87.12;112049.66;5053563;28;20209;-78
2022/06/16 01:53:01;;;;;;;8.13;4.60;;;22.10;59.00;;;-142.21;86.79;112049.66;5054096;28;20746;-78
2022/06/16 01:55:36;;;;;;;5.03;3.83;;;22.10;59.00;;;-142.21;86.11;112049.66;5034467;28;20221;-79
2022/06/16 01:58:11;;;;;;;4.97;3.87;;;22.10;59.00;;;-142.21;85.90;112049.66;5034311;28;20313;-78
2022/06/16 02:00:43;;;;;;;5.60;3.90;;;21.90;58.90;;;-142.21;86.34;112049.66;5038022;28;20282;-79
2022/06/16 02:03:19;;;;;;;4.53;3.93;;;21.80;59.00;;;-142.21;86.72;112049.66;5053192;28;20229;-76
2022/06/16 02:05:52;;;;;;;5.20;4.33;;;21.80;59.10;;;-142.21;86.45;112049.66;5040318;28;20201;-78
2022/06/16 02:08:25;;;;;;;6.83;4.10;;;21.80;59.00;;;-142.21;87.05;112049.66;5053065;28;20302;-78
2022/06/16 02:10:58;;;;;;;4.93;4.13;;;21.80;59.20;;;-142.21;87.21;112049.66;5037313;28;20552;-78
2022/06/16 02:13:31;;;;;;;5.30;4.00;;;21.80;59.20;;;-142.21;87.34;112049.66;5053235;28;20233;-78
2022/06/16 02:16:06;;;;;;;7.10;4.33;;;21.80;59.20;;;-142.21;87.71;112049.66;5053398;28;20237;-76
2022/06/16 02:18:38;;;;;;;4.57;4.03;;;21.80;59.40;;;-142.21;87.68;112049.66;5042836;28;20293;-80
2022/06/16 02:21:15;;;;;;;4.77;4.27;;;21.70;59.40;;;-142.21;88.13;112049.66;5053198;28;20237;-77
2022/06/16 02:23:44;;;;;;;5.00;3.90;;;21.70;59.60;;;-142.21;87.96;112049.66;5053221;28;20229;-79
2022/06/16 02:26:12;;;;;;;4.53;4.13;;;21.70;59.60;;;-142.21;87.95;112049.66;5052735;28;20201;-79
2022/06/16 02:28:49;;;;;;;6.57;3.80;;;21.70;59.70;;;-142.21;88.10;112049.66;5038388;28;20276;-79
2022/06/16 02:31:47;;;;;;;4.43;4.03;;;21.60;60.00;;;-142.21;88.10;112049.66;5043092;28;20542;-78
2022/06/16 02:34:31;;;;;;;5.27;3.80;;;21.60;60.20;;;-142.21;87.82;112049.66;5052284;28;20237;-78
2022/06/16 02:37:33;;;;;;;6.30;3.87;;;21.60;59.90;;;-142.21;87.76;112049.66;5039333;28;20308;-80
2022/06/16 02:40:54;;;;;;;4.83;4.37;;;21.60;60.10;;;-142.21;87.83;112049.66;5051620;28;20210;-78
2022/06/16 02:43:45;;;;;;;4.67;4.27;;;21.60;60.20;;;-142.21;88.01;112049.66;5021735;28;20292;-78
2022/06/16 02:46:28;;;;;;;4.43;4.03;;;21.60;59.90;;;-142.21;88.00;112049.66;5051002;28;20241;-79
2022/06/16 02:49:11;;;;;;;5.93;4.40;;;21.50;59.70;;;-142.21;88.10;112049.66;5045878;28;20245;-79
2022/06/16 02:51:45;;;;;;;4.47;3.87;;;21.60;59.90;;;-142.21;88.15;112049.66;5049408;28;20297;-77
2022/06/16 02:54:22;;;;;;;4.80;4.17;;;21.50;59.80;;;-142.21;88.13;112049.66;5038083;28;20292;-77
2022/06/16 02:56:58;;;;;;;4.67;4.00;;;21.50;60.60;;;-142.21;88.58;112049.66;5051330;28;20209;-77
2022/06/16 02:59:33;;;;;;;4.80;3.50;;;21.50;60.00;;;-142.21;88.70;112049.66;5052174;28;20233;-77
2022/06/16 03:02:04;;;;;;;4.90;3.93;;;21.40;60.00;;;-142.21;89.17;112049.66;5039994;28;20194;-76
2022/06/16 03:04:39;;;;;;;4.23;3.70;;;21.40;60.00;;;-142.21;89.34;112049.66;5041924;28;20216;-77
2022/06/16 03:07:06;;;;;;;5.17;3.80;;;21.40;60.50;;;-142.21;89.65;112049.66;5052413;28;20197;-78
2022/06/16 03:09:34;;;;;;;4.47;3.97;;;21.40;60.20;;;-142.21;90.23;112049.66;5050865;28;20662;-80
2022/06/16 03:12:01;;;;;;;5.43;4.00;;;21.40;60.50;;;-142.21;90.36;112049.66;5052220;28;20665;-80
2022/06/16 03:14:28;;;;;;;4.70;4.17;;;21.40;60.60;;;-142.21;90.29;112049.66;5063672;28;20550;-79
2022/06/16 03:16:55;;;;;;;5.90;4.33;;;21.40;60.70;;;-142.21;90.36;112049.66;5046025;28;20221;-79
2022/06/16 03:19:23;;;;;;;4.17;3.77;;;21.40;60.70;;;-142.21;89.87;112049.66;5051974;28;20212;-80
2022/06/16 03:21:52;;;;;;;5.13;4.13;;;21.40;61.20;;;-142.21;90.83;112049.66;5053822;28;20304;-78
2022/06/16 03:24:19;;;;;;;5.47;4.30;;;21.40;60.70;;;-142.21;90.55;112049.66;5053789;28;20293;-79
2022/06/16 03:26:46;;;;;;;4.00;3.70;;;21.40;60.70;;;-142.21;90.96;112049.66;5055917;28;20715;-77
2022/06/16 03:29:13;;;;;;;6.90;4.70;;;21.30;60.70;;;-142.21;90.93;112049.66;5041272;28;20321;-77
2022/06/16 03:31:40;;;;;;;4.37;3.97;;;21.40;61.10;;;-142.21;91.21;112049.66;5039412;28;20202;-78
2022/06/16 03:34:08;;;;;;;4.40;4.00;;;21.40;61.30;;;-142.21;91.28;112049.66;5049935;28;20215;-78
2022/06/16 03:36:38;;;;;;;5.80;4.17;;;21.40;61.50;;;-142.21;91.51;112049.66;5044201;28;20206;-78
2022/06/16 03:39:07;;;;;;;5.20;4.30;;;21.40;61.60;;;-142.21;91.67;112049.66;5042274;28;20202;-78
2022/06/16 03:41:34;;;;;;;4.07;3.67;;;21.40;61.80;;;-142.21;91.42;112049.66;5031355;28;20209;-78
2022/06/16 03:44:02;;;;;;;5.13;4.50;;;21.40;61.40;;;-142.21;90.85;112049.66;5047963;28;20201;-76
2022/06/16 03:46:29;;;;;;;5.20;4.10;;;21.30;61.00;;;-142.21;91.41;112049.66;5056481;28;20288;-77
2022/06/16 03:48:56;;;;;;;4.73;4.33;;;21.30;61.40;;;-142.21;90.90;112049.66;5043488;28;20234;-76
2022/06/16 03:51:23;;;;;;;5.17;4.67;;;21.30;61.10;;;-142.21;90.83;112049.66;5041576;28;20224;-77
2022/06/16 03:53:50;;;;;;;4.60;4.20;;;21.30;61.10;;;-142.21;89.94;112049.66;5034075;28;20301;-77
2022/06/16 03:56:19;;;;;;;5.03;4.57;;;21.30;60.20;;;-142.21;89.70;112049.66;5045874;28;20225;-77
2022/06/16 03:58:46;;;;;;;5.30;4.80;;;21.30;60.20;;;-142.21;89.20;112049.66;5045355;28;20217;-77
2022/06/16 04:01:13;;;;;;;5.03;4.40;;;21.30;59.90;;;-142.21;89.90;112049.66;5059054;28;20333;-77
2022/06/16 04:06:25;;;;;;;5.60;4.37;;;21.20;60.00;;;-142.21;89.03;112049.66;5051400;28;20232;-76
2022/06/16 04:08:53;;;;;;;3.97;3.67;;;21.20;60.00;;;-142.21;87.88;112049.66;5043702;28;20216;-77
2022/06/16 04:11:28;;;;;;;5.87;4.27;;;21.30;59.90;;;-142.21;87.07;112049.66;5045104;28;20285;-77
2022/06/16 04:14:00;;;;;;;4.30;3.90;;;21.30;59.70;;;-142.21;86.43;112049.66;5053730;28;20193;-77
2022/06/16 04:16:30;;;;;;;4.60;4.10;;;21.40;59.40;;;-142.21;86.60;112049.66;5070506;28;20194;-76
2022/06/16 04:18:57;;;;;;;4.40;4.00;;;21.40;59.60;;;-142.21;86.02;112049.66;5045948;28;20230;-79
2022/06/16 04:21:27;;;;;;;4.80;4.03;;;21.50;59.30;;;-142.21;86.40;112049.66;5050406;28;20216;-78
2022/06/16 04:23:54;;;;;;;5.17;4.20;;;21.40;59.40;;;-142.21;87.58;112049.66;5052077;28;20213;-76
2022/06/16 04:26:23;;;;;;;5.10;4.27;;;21.40;60.20;;;-142.21;88.75;112049.66;5052414;28;20198;-79
2022/06/16 04:28:51;;;;;;;4.57;4.07;;;21.40;60.40;;;-142.21;87.87;112049.66;5050930;28;20244;-77
2022/06/16 04:31:18;;;;;;;5.23;4.07;;;21.50;60.00;;;-142.21;89.85;112049.66;5050727;28;20617;-78
2022/06/16 04:33:45;;;;;;;4.70;3.90;;;21.60;61.00;;;-142.21;89.87;112049.66;5051329;28;20216;-78
2022/06/16 04:36:15;;;;;;;3.93;3.60;;;21.60;60.90;;;-142.21;89.56;112049.66;5051197;28;20214;-78
2022/06/16 04:38:42;;;;;;;4.80;4.13;;;21.60;60.80;;;-142.21;89.75;112049.66;5050403;28;20269;-81
2022/06/16 04:41:10;;;;;;;4.90;4.20;;;21.70;60.60;;;-142.21;89.18;112049.66;5051330;28;20284;-80
2022/06/16 04:43:38;;;;;;;8.03;4.60;;;21.70;60.20;;;-142.21;89.83;112049.66;5050971;28;20326;-80
2022/06/16 04:46:05;;;;;;;4.17;3.77;;;21.80;60.60;;;-142.21;89.31;112049.66;5051025;28;20661;-79
2022/06/16 04:48:33;;;;;;;4.83;4.13;;;21.90;60.70;;;-142.21;88.96;112049.66;5062139;28;20600;-81
2022/06/16 04:51:02;;;;;;;4.53;3.83;;;21.90;60.70;;;-142.21;89.06;112049.66;5058698;28;20289;-80
2022/06/16 04:53:29;;;;;;;4.63;4.23;;;22.00;60.50;;;-142.21;89.73;112049.66;5050241;28;20198;-81
2022/06/16 04:55:59;;;;;;;4.93;4.30;;;22.10;61.20;;;-142.21;89.87;112049.66;5045293;28;20213;-79
2022/06/16 04:58:29;;;;;;;5.57;4.40;;;22.00;61.10;;;-142.21;89.73;112049.66;5054402;28;20612;-78
2022/06/16 05:00:58;;;;;;;4.43;4.00;;;22.10;60.80;;;-142.21;90.37;112049.66;5055222;28;20205;-80
2022/06/16 05:03:28;;;;;;;4.33;3.93;;;22.20;61.30;;;-142.21;89.64;112049.66;5049996;28;20215;-76
2022/06/16 05:05:56;;;;;;;4.90;4.00;;;22.20;60.90;;;-142.21;90.06;112049.66;5036753;28;20547;-77
2022/06/16 05:08:24;;;;;;;4.00;3.70;;;22.30;61.00;;;-142.21;91.71;112049.66;5059516;28;20205;-79
2022/06/16 05:10:53;;;;;;;4.80;3.93;;;22.40;61.60;;;-142.21;91.21;112049.66;5056084;28;20198;-80
2022/06/16 05:13:21;;;;;;;7.07;4.07;;;22.40;61.50;;;-142.21;92.23;112049.66;5050582;28;20292;-79
2022/06/16 05:15:48;;;;;;;4.20;3.80;;;22.50;61.70;;;-142.21;92.56;112049.66;5052518;28;20647;-79
2022/06/16 05:18:17;;;;;;;5.50;4.00;;;22.60;61.90;;;-142.21;94.12;112049.66;5053837;28;20312;-78
2022/06/16 05:20:44;;;;;;;4.43;4.00;;;22.60;62.80;;;-142.21;92.47;112049.66;5053521;28;20209;-78
2022/06/16 05:23:12;;;;;;;5.97;4.77;;;22.70;62.40;;;-142.21;91.45;112049.66;5058514;28;20663;-78
2022/06/16 05:25:41;;;;;;;5.13;4.37;;;22.50;61.80;;;-142.21;92.00;112049.66;5068222;28;20287;-78
2022/06/16 05:28:11;;;;;;;5.30;4.30;;;22.20;62.90;;;-142.21;92.04;112049.66;5053312;28;20244;-77
2022/06/16 05:30:38;;;;;;;5.47;4.30;;;22.20;63.10;;;-142.21;92.48;112049.66;5053652;28;20202;-77
2022/06/16 05:33:06;;;;;;;4.60;4.17;;;22.10;63.20;;;-142.21;91.92;112049.66;5042587;28;20302;-80
2022/06/16 05:35:35;;;;;;;5.90;4.33;;;22.20;63.20;;;-142.21;90.40;112049.66;5041256;28;20280;-80
2022/06/16 05:38:02;;;;;;;4.07;3.73;;;22.20;62.40;;;-142.21;90.11;112049.66;5068177;28;20235;-79
2022/06/16 05:40:29;;;;;;;4.77;4.10;;;22.30;62.10;;;-142.21;90.13;112049.66;5067871;28;20326;-79
2022/06/16 05:42:56;;;;;;;5.37;4.27;;;22.40;62.10;;;-142.21;88.85;112049.66;5054242;28;20202;-78
2022/06/16 05:45:24;;;;;;;5.90;4.80;;;22.40;61.30;;;-142.21;89.53;112049.66;5053878;28;20285;-81
2022/06/16 05:47:51;;;;;;;4.50;4.10;;;22.50;61.60;;;-142.21;89.03;112049.66;5054450;28;20647;-79
2022/06/16 05:50:19;;;;;;;4.93;3.80;;;22.60;61.30;;;-142.21;88.74;112049.66;5053946;28;20252;-80
2022/06/16 05:52:47;;;;;;;4.63;4.20;;;22.80;61.10;;;-142.21;87.56;112049.66;5053026;28;20289;-80
2022/06/16 05:55:17;;;;;;;4.63;3.83;;;22.90;60.20;;;-142.21;84.43;112049.66;5046418;28;20310;-79
2022/06/16 05:57:45;;;;;;;4.87;4.37;;;23.00;59.20;;;-142.21;83.98;112049.66;5061828;28;20259;-80
2022/06/16 06:00:13;;;;;;;4.13;3.83;;;23.10;58.80;;;-142.21;83.45;112049.66;5033865;28;20237;-80
2022/06/16 06:02:40;;;;;;;4.10;3.70;;;23.30;58.60;;;-142.21;81.75;112049.66;5052337;28;20247;-80
2022/06/16 06:05:08;;;;;;;4.37;3.97;;;23.40;58.00;;;-142.21;79.71;112049.66;5049067;28;20281;-79
2022/06/16 06:18:33;;;;;;;4.03;3.60;;;24.00;56.30;;;-142.21;76.49;112049.66;5054879;28;20641;-79
2022/06/16 06:21:01;;;;;;;4.43;3.57;;;24.20;56.40;;;-142.21;74.97;112049.66;5050692;28;20202;-80
2022/06/16 06:23:28;;;;;;;4.17;3.73;;;24.40;55.80;;;-142.21;74.02;112049.66;5061532;28;20674;-77
2022/06/16 06:25:57;;;;;;;3.93;3.53;;;24.50;55.50;;;-142.21;72.26;112049.66;5049271;28;20212;-79
2022/06/16 06:28:26;;;;;;;3.70;3.37;;;24.60;55.10;;;-142.21;70.77;112049.66;5066916;28;20241;-81
2022/06/16 06:30:53;;;;;;;3.80;2.97;;;24.80;54.60;;;-142.21;69.42;112049.66;5052908;28;20206;-78
2022/06/16 06:33:20;;;;;;;4.73;3.57;;;24.90;54.80;;;-142.21;70.38;112049.66;5065454;28;20657;-80
2022/06/16 06:35:47;;;;;;;4.03;3.50;;;25.00;54.80;;;-142.21;70.29;112049.66;5045622;28;20210;-79
2022/06/16 06:38:16;;;;;;;4.63;3.13;;;25.20;54.10;;;-142.21;69.11;112049.66;5044857;28;20230;-78
2022/06/16 06:40:43;;;;;;;5.43;3.23;;;25.30;53.90;;;-142.21;69.09;112049.66;5035492;28;20209;-78
2022/06/16 06:43:11;;;;;;;3.37;3.00;;;25.40;53.60;;;-142.21;68.34;112049.66;5052633;28;20730;-77
2022/06/16 06:45:39;;;;;;;4.80;3.27;;;25.50;53.40;;;-142.21;69.49;112049.66;5049193;28;20202;-78
2022/06/16 06:48:07;;;;;;;4.50;3.10;;;25.50;53.50;;;-142.21;68.85;112049.66;5052410;28;20206;-79
2022/06/16 06:50:40;;;;;;;4.07;3.20;;;25.60;53.40;;;-142.21;68.29;112049.66;5051652;28;20300;-79
2022/06/16 06:53:08;;;;;;;5.87;3.23;;;25.60;53.20;;;-142.21;66.23;112049.66;5047388;28;20210;-78
2022/06/16 06:55:41;;;;;;;3.73;3.30;;;25.70;53.00;;;-142.21;66.50;112049.66;5047493;28;20210;-79
2022/06/16 06:58:09;;;;;;;3.70;3.30;;;25.70;52.80;;;-142.21;67.05;112049.66;5036121;28;20252;-78
2022/06/16 07:00:37;;;;;;;3.53;3.20;;;25.80;52.90;;;-142.21;67.35;112049.66;5044634;28;20208;-78
2022/06/16 07:03:05;;;;;;;5.80;3.23;;;25.90;52.90;;;-142.21;67.87;112049.66;5069289;28;20205;-77
2022/06/16 07:05:32;;;;;;;6.03;3.30;;;25.90;52.90;;;-142.21;66.82;112049.66;5037194;28;20293;-80
2022/06/16 07:07:59;;;;;;;4.87;3.43;;;25.90;52.50;;;-142.21;66.50;112049.66;5052754;28;20198;-79
2022/06/16 07:10:26;;;;;;;5.27;3.10;;;26.00;52.50;;;-142.21;66.74;112049.66;5051453;28;20266;-78
2022/06/16 07:12:54;;;;;;;5.67;3.43;;;26.00;52.50;;;-142.21;68.45;112049.66;5064333;28;20297;-77
2022/06/16 07:15:22;;;;;;;4.10;3.37;;;26.00;52.80;;;-142.21;66.01;112049.66;5032809;28;20212;-76
2022/06/16 07:17:51;;;;;;;4.47;3.67;;;26.00;53.00;;;-142.21;67.02;112049.66;5051301;28;20202;-77
2022/06/16 07:20:24;;;;;;;3.70;3.40;;;26.00;52.40;;;-142.21;65.56;112049.66;5050309;28;20208;-78
2022/06/16 07:22:51;;;;;;;4.27;2.87;;;26.10;52.10;;;-142.21;63.39;112049.66;5049198;28;20298;-79
2022/06/16 07:25:20;;;;;;;3.73;2.83;;;26.20;51.70;;;-142.21;62.28;112049.66;5048896;28;20198;-79
2022/06/16 07:27:47;;;;;;;4.00;3.23;;;26.20;51.30;;;-142.21;60.42;112049.66;5051007;28;20237;-79
2022/06/16 07:30:18;;;;;;;3.70;2.97;;;26.30;51.10;;;-142.21;61.43;112049.66;5045162;28;20297;-79
2022/06/16 07:32:48;;;;;;;4.03;2.93;;;26.40;51.30;;;-142.21;60.66;112049.66;5040266;28;20241;-78
2022/06/16 07:35:20;;;;;;;3.40;3.10;;;26.40;51.00;;;-142.21;62.49;112049.66;5036922;28;20240;-78
2022/06/16 07:37:48;;;;;;;3.43;3.07;;;26.50;51.60;;;-142.21;56.19;112049.66;5042581;28;20214;-79
2022/06/16 07:40:19;;;;;;;3.83;3.10;;;26.60;50.00;;;-142.21;59.24;112049.66;5032358;28;20207;-78
2022/06/16 07:42:47;;;;;;;7.30;2.63;;;26.60;50.50;;;-142.21;53.83;112049.66;5036185;28;20225;-80
2022/06/16 07:45:15;;;;;;;3.00;2.70;;;26.70;49.40;;;-142.21;56.02;112049.66;5052015;28;20210;-78
2022/06/16 07:47:43;;;;;;;3.27;2.53;;;26.80;50.00;;;-142.21;57.08;112049.66;5070949;28;20236;-84
2022/06/16 07:50:14;;;;;;;2.83;2.63;;;26.90;50.00;;;-142.21;55.65;112049.66;5072372;28;20247;-78
2022/06/16 07:52:42;;;;;;;3.87;2.93;;;27.00;49.50;;;-142.21;54.61;112049.66;5052820;28;20246;-77
2022/06/16 07:55:11;;;;;;;6.53;3.07;;;27.10;49.30;;;-142.21;53.71;112049.66;5052200;28;20208;-81
2022/06/16 07:57:47;;;;;;;6.03;2.80;;;27.20;49.10;;;-142.21;54.05;112049.66;5036678;28;20235;-78
2022/06/16 08:00:20;;;;;;;3.73;2.70;;;27.40;48.80;;;-142.21;53.34;112049.66;5050113;28;20566;-78
2022/06/16 08:02:48;;;;;;;3.73;3.20;;;27.50;48.70;;;-142.21;47.96;112049.66;5050707;28;20197;-80
2022/06/16 08:05:16;;;;;;;3.20;2.90;;;27.50;46.90;;;-142.21;48.25;112049.66;5051530;28;20264;-81
2022/06/16 08:07:45;;;;;;;3.53;2.90;;;27.60;47.30;;;-142.21;49.86;112049.66;5067421;28;20659;-81
2022/06/16 08:10:18;;;;;;;3.17;2.87;;;27.60;47.60;;;-142.21;49.66;112049.66;5066543;28;20209;-78
2022/06/16 08:12:46;;;;;;;3.20;3.00;;;27.80;47.70;;;-142.21;49.87;112049.66;5051105;28;20286;-79
2022/06/16 08:15:14;;;;;;;2.87;2.57;;;27.80;47.50;;;-142.21;48.69;112049.66;5051446;28;20222;-81
2022/06/16 08:17:46;;;;;;;3.87;2.73;;;28.00;47.20;;;-142.21;49.80;112049.66;5050863;28;20240;-80
2022/06/16 08:20:13;;;;;;;3.03;2.70;;;28.00;47.20;;;-142.21;49.59;112049.66;5051603;28;20217;-81
2022/06/16 08:22:42;;;;;;;3.63;3.27;;;28.10;47.10;;;-142.21;48.35;112049.66;5051335;28;20231;-78
2022/06/16 08:25:13;;;;;;;3.03;2.73;;;28.20;46.60;;;-142.21;48.66;112049.66;5049769;28;20622;-77
2022/06/16 08:27:44;;;;;;;4.90;3.23;;;28.30;46.70;;;-142.21;50.63;112049.66;5040652;28;20280;-78
2022/06/16 08:30:16;;;;;;;2.83;2.63;;;28.30;47.10;;;-142.21;46.05;112049.66;5066277;28;20226;-80
2022/06/16 08:32:44;;;;;;;3.17;2.70;;;28.30;45.80;;;-142.21;49.00;112049.66;5049656;28;20220;-79
2022/06/16 08:35:12;;;;;;;2.83;2.63;;;28.30;46.80;;;-142.21;46.91;112049.66;5047854;28;20215;-77
2022/06/16 08:37:45;;;;;;;3.10;2.83;;;28.40;46.30;;;-142.21;49.53;112049.66;5036694;28;20625;-77
2022/06/16 08:40:16;;;;;;;3.80;2.80;;;28.50;47.00;;;-142.21;49.15;112049.66;5055061;28;20225;-76
2022/06/16 08:42:51;;;;;;;3.77;2.70;;;28.60;46.80;;;-142.21;47.99;112049.66;5060561;28;20284;-78
2022/06/16 08:45:33;;;;;;;2.53;2.20;;;28.80;46.50;;;-142.21;47.51;112049.66;5054578;28;20187;-77
2022/06/16 08:48:27;;;;;;;3.03;2.80;;;28.80;45.80;;;-142.21;47.30;112049.66;5055212;28;20287;-76
2022/06/16 08:51:07;;;;;;;4.13;3.00;;;28.90;46.00;;;-142.21;48.46;112049.66;5059515;28;20200;-78
2022/06/16 08:54:09;;;;;;;3.00;2.80;;;29.10;46.70;;;-142.21;47.17;112049.66;5075067;28;20591;-79
2022/06/16 08:56:48;;;;;;;3.17;2.60;;;29.20;45.90;;;-142.21;45.06;112049.66;5066061;28;20214;-77
2022/06/16 08:59:31;;;;;;;2.57;2.27;;;29.30;44.90;;;-142.21;44.31;112049.66;5074533;28;20216;-77
2022/06/16 09:02:09;;;;;;;3.60;2.50;;;29.40;44.30;;;-142.21;45.59;112049.66;5070582;28;20569;-77
2022/06/16 09:04:43;;;;;;;4.10;2.70;;;29.40;44.60;;;-142.21;44.90;112049.66;5042387;28;20289;-79
2022/06/16 09:07:29;;;;;;;4.50;2.67;;;29.50;44.50;;;-142.21;44.57;112049.66;5062880;28;20223;-76
2022/06/16 09:10:23;;;;;;;2.67;2.47;;;29.50;44.40;;;-142.21;43.47;112049.66;5052621;28;20227;-77
2022/06/16 09:13:35;;;;;;;4.07;2.60;;;29.60;44.00;;;-142.21;44.79;112049.66;5059496;28;20244;-71
2022/06/16 09:16:15;;;;;;;4.37;2.80;;;29.70;44.00;;;-142.21;45.31;112049.66;5041655;28;20247;-72
2022/06/16 09:19:26;;;;;;;2.90;2.60;;;29.80;44.70;;;-142.21;43.28;112049.66;5047164;28;20546;-71
2022/06/16 09:22:12;;;;;;;5.57;2.90;;;29.90;43.60;;;-142.21;43.51;112049.66;5027188;28;20234;-70
2022/06/16 09:25:03;;;;;;;3.20;2.53;;;29.90;44.10;;;-142.21;40.87;112049.66;5045365;28;20814;-67
2022/06/16 09:27:42;;;;;;;3.23;2.50;;;30.00;42.20;;;-142.21;41.45;112049.66;5048394;28;20213;-67
2022/06/16 09:30:17;;;;;;;5.17;3.07;;;30.10;42.80;;;-142.21;42.08;112049.66;5040947;28;20560;-70
2022/06/16 09:32:54;;;;;;;4.60;2.90;;;30.10;43.20;;;-142.21;41.39;112049.66;5052449;28;20201;-70
2022/06/16 09:35:29;;;;;;;2.90;2.60;;;30.20;42.90;;;-142.21;41.26;112049.66;5051778;28;20186;-70
2022/06/16 09:38:07;;;;;;;3.37;2.90;;;30.20;42.50;;;-142.21;41.55;112049.66;5047295;28;20197;-70
2022/06/16 09:40:39;;;;;;;4.53;2.77;;;30.40;42.80;;;-142.21;40.46;112049.66;5052515;28;20216;-70
2022/06/16 09:43:14;;;;;;;4.63;2.90;;;30.40;42.20;;;-142.21;40.63;112049.66;5052640;28;20198;-70
2022/06/16 09:45:50;;;;;;;5.97;2.87;;;30.40;42.20;;;-142.21;41.13;112049.66;5043817;28;20193;-69
2022/06/16 09:48:25;;;;;;;3.70;2.63;;;30.50;42.20;;;-142.21;41.27;112049.66;5046941;28;20232;-70
2022/06/16 09:50:59;;;;;;;2.90;2.60;;;30.60;42.30;;;-142.21;41.10;112049.66;5052877;28;20304;-70
2022/06/16 09:53:37;;;;;;;3.57;2.60;;;30.60;42.50;;;-142.21;40.92;112049.66;5053996;28;20193;-70
2022/06/16 09:56:11;;;;;;;2.73;2.53;;;30.60;42.00;;;-142.21;41.89;112049.66;5052491;28;20197;-68
2022/06/16 09:58:46;;;;;;;5.63;2.90;;;30.70;43.40;;;-142.21;40.13;112049.66;5052111;28;20654;-70
2022/06/16 10:01:20;;;;;;;5.20;2.50;;;30.80;42.00;;;-142.21;40.38;112049.66;5051382;28;20205;-72
2022/06/16 10:03:58;;;;;;;3.07;2.67;;;30.80;41.60;;;-142.21;37.85;112049.66;5047909;28;20235;-72
2022/06/16 10:06:37;;;;;;;3.30;3.00;;;30.80;40.20;;;-142.21;40.85;112049.66;5059759;28;20751;-73
2022/06/16 10:09:19;;;;;;;9.90;3.20;;;30.80;41.90;;;-142.21;40.39;112049.66;5047933;28;20319;-79
2022/06/16 10:12:05;;;;;;;5.00;2.80;;;30.80;41.90;;;-142.21;39.12;112049.66;5057845;28;20222;-79
2022/06/16 10:14:41;;;;;;;3.97;2.30;;;30.90;40.90;;;-142.21;38.50;112049.66;5052663;28;20216;-80
2022/06/16 10:17:14;;;;;;;4.83;2.53;;;31.00;40.90;;;-142.21;37.42;112049.66;5036195;28;20209;-78
2022/06/16 10:19:45;;;;;;;5.23;2.30;;;31.10;40.70;;;-142.21;37.06;112049.66;5061233;28;20222;-79
2022/06/16 10:22:16;;;;;;;4.07;2.30;;;31.10;39.80;;;-142.21;39.22;112049.66;5049924;28;20659;-80
2022/06/16 10:24:53;;;;;;;3.17;2.67;;;31.20;41.10;;;-142.21;37.85;112049.66;5050910;28;20202;-79
2022/06/16 10:27:22;;;;;;;4.63;2.70;;;31.30;40.50;;;-142.21;36.24;112049.66;5052766;28;20259;-77
2022/06/16 10:29:56;;;;;;;2.90;2.50;;;31.40;39.70;;;-142.21;37.70;112049.66;5043140;28;20209;-79
2022/06/16 10:32:42;;;;;;;2.70;2.50;;;31.40;40.20;;;-142.21;36.73;112049.66;5043501;28;20724;-74
2022/06/16 10:35:29;;;;;;;3.23;2.50;;;31.50;39.20;;;-142.21;37.66;112049.66;5059114;28;20622;-75
2022/06/16 10:37:59;;;;;;;3.03;2.67;;;31.60;40.10;;;-142.21;37.67;112049.66;5037696;28;20284;-76
2022/06/16 10:40:31;;;;;;;3.50;2.40;;;31.70;40.10;;;-142.21;36.95;112049.66;5040825;28;20237;-76
2022/06/16 10:43:08;;;;;;;3.67;2.80;;;31.80;39.70;;;-142.21;36.09;112049.66;5038310;28;20641;-78